sensor_id;sensor_type;location;lat;lon;timestamp;temperature;humidity
46676;DHT22;32412;51.478;5.694;2023-02-28T00:01:14;-1.30;99.90
46676;DHT22;32412;51.478;5.694;2023-02-28T00:03:41;-1.40;99.90
46676;DHT22;32412;51.478;5.694;2023-02-28T00:06:07;-1.30;99.90
46676;DHT22;32412;51.478;5.694;2023-02-28T00:08:35;-1.40;99.90
46676;DHT22;32412;51.478;5.694;2023-02-28T00:11:04;-1.30;99.90
46676;DHT22;32412;51.478;5.694;2023-02-28T00:13:31;-1.40;99.90
46676;DHT22;32412;51.478;5.694;2023-02-28T00:16:05;-1.40;99.90
46676;DHT22;32412;51.478;5.694;2023-02-28T00:18:35;-1.40;99.90
46676;DHT22;32412;51.478;5.694;2023-02-28T00:21:01;-1.40;99.90
46676;DHT22;32412;51.478;5.694;2023-02-28T00:23:28;-1.40;99.90
46676;DHT22;32412;51.478;5.694;2023-02-28T00:25:53;-1.40;99.90
46676;DHT22;32412;51.478;5.694;2023-02-28T00:28:20;-1.30;99.90
46676;DHT22;32412;51.478;5.694;2023-02-28T00:30:49;-1.30;99.90
46676;DHT22;32412;51.478;5.694;2023-02-28T00:33:15;-1.20;99.90
46676;DHT22;32412;51.478;5.694;2023-02-28T00:35:41;-1.20;99.90
46676;DHT22;32412;51.478;5.694;2023-02-28T00:38:07;-1.20;99.90
46676;DHT22;32412;51.478;5.694;2023-02-28T00:40:33;-1.30;99.90
46676;DHT22;32412;51.478;5.694;2023-02-28T00:42:59;-1.30;99.90
46676;DHT22;32412;51.478;5.694;2023-02-28T00:45:24;-1.40;99.90
46676;DHT22;32412;51.478;5.694;2023-02-28T00:47:50;-1.40;99.90
46676;DHT22;32412;51.478;5.694;2023-02-28T00:50:19;-1.40;99.90
46676;DHT22;32412;51.478;5.694;2023-02-28T00:52:46;-1.50;99.90
46676;DHT22;32412;51.478;5.694;2023-02-28T00:55:12;-1.50;99.90
46676;DHT22;32412;51.478;5.694;2023-02-28T00:57:41;-1.60;99.90
46676;DHT22;32412;51.478;5.694;2023-02-28T01:00:07;-1.60;99.90
46676;DHT22;32412;51.478;5.694;2023-02-28T01:02:33;-1.70;99.90
46676;DHT22;32412;51.478;5.694;2023-02-28T01:04:59;-1.70;99.90
46676;DHT22;32412;51.478;5.694;2023-02-28T01:07:25;-1.80;99.90
46676;DHT22;32412;51.478;5.694;2023-02-28T01:09:51;-1.90;99.90
46676;DHT22;32412;51.478;5.694;2023-02-28T01:12:16;-1.90;99.90
46676;DHT22;32412;51.478;5.694;2023-02-28T01:14:42;-2.00;99.90
46676;DHT22;32412;51.478;5.694;2023-02-28T01:17:08;-2.10;99.90
46676;DHT22;32412;51.478;5.694;2023-02-28T01:19:35;-2.10;99.90
46676;DHT22;32412;51.478;5.694;2023-02-28T01:22:05;-2.20;99.90
46676;DHT22;32412;51.478;5.694;2023-02-28T01:24:32;-2.20;99.90
46676;DHT22;32412;51.478;5.694;2023-02-28T01:26:57;-2.30;99.90
46676;DHT22;32412;51.478;5.694;2023-02-28T01:29:23;-2.30;99.90
46676;DHT22;32412;51.478;5.694;2023-02-28T01:31:49;-2.30;99.90
46676;DHT22;32412;51.478;5.694;2023-02-28T01:34:15;-2.30;99.90
46676;DHT22;32412;51.478;5.694;2023-02-28T01:36:40;-2.30;99.90
46676;DHT22;32412;51.478;5.694;2023-02-28T01:39:06;-2.30;99.90
46676;DHT22;32412;51.478;5.694;2023-02-28T01:41:33;-2.30;99.90
46676;DHT22;32412;51.478;5.694;2023-02-28T01:46:49;-2.30;99.90
46676;DHT22;32412;51.478;5.694;2023-02-28T01:49:17;-2.30;99.90
46676;DHT22;32412;51.478;5.694;2023-02-28T01:51:51;-2.30;99.90
46676;DHT22;32412;51.478;5.694;2023-02-28T01:54:23;-2.20;99.90
46676;DHT22;32412;51.478;5.694;2023-02-28T01:56:54;-2.30;99.90
46676;DHT22;32412;51.478;5.694;2023-02-28T01:59:29;-2.30;99.90
46676;DHT22;32412;51.478;5.694;2023-02-28T02:01:56;-2.30;99.90
46676;DHT22;32412;51.478;5.694;2023-02-28T02:04:23;-2.30;99.90
46676;DHT22;32412;51.478;5.694;2023-02-28T02:06:51;-2.30;99.90
46676;DHT22;32412;51.478;5.694;2023-02-28T02:09:17;-2.30;99.90
46676;DHT22;32412;51.478;5.694;2023-02-28T02:11:45;-2.30;99.90
46676;DHT22;32412;51.478;5.694;2023-02-28T02:36:12;-2.60;99.90
46676;DHT22;32412;51.478;5.694;2023-02-28T02:38:50;-2.60;99.90
46676;DHT22;32412;51.478;5.694;2023-02-28T02:44:06;-2.50;99.90
46676;DHT22;32412;51.478;5.694;2023-02-28T02:46:45;-2.50;99.90
46676;DHT22;32412;51.478;5.694;2023-02-28T02:49:26;-2.40;99.90
46676;DHT22;32412;51.478;5.694;2023-02-28T02:51:53;-2.40;99.90
46676;DHT22;32412;51.478;5.694;2023-02-28T02:54:28;-2.30;99.90
46676;DHT22;32412;51.478;5.694;2023-02-28T02:57:00;-2.20;99.90
46676;DHT22;32412;51.478;5.694;2023-02-28T02:59:28;-2.20;99.90
46676;DHT22;32412;51.478;5.694;2023-02-28T03:01:58;-2.10;99.90
46676;DHT22;32412;51.478;5.694;2023-02-28T03:04:27;-2.00;99.90
46676;DHT22;32412;51.478;5.694;2023-02-28T03:06:56;-2.00;99.90
46676;DHT22;32412;51.478;5.694;2023-02-28T03:09:22;-1.80;99.90
46676;DHT22;32412;51.478;5.694;2023-02-28T03:11:49;-1.60;99.90
46676;DHT22;32412;51.478;5.694;2023-02-28T03:23:17;-1.40;99.90
46676;DHT22;32412;51.478;5.694;2023-02-28T03:25:41;-1.30;99.90
46676;DHT22;32412;51.478;5.694;2023-02-28T03:34:01;-1.10;99.90
46676;DHT22;32412;51.478;5.694;2023-02-28T03:36:33;-1.10;99.90
46676;DHT22;32412;51.478;5.694;2023-02-28T03:39:09;-1.10;99.90
46676;DHT22;32412;51.478;5.694;2023-02-28T03:44:29;-1.00;99.90
46676;DHT22;32412;51.478;5.694;2023-02-28T03:47:12;-0.90;99.90
46676;DHT22;32412;51.478;5.694;2023-02-28T03:49:47;-0.80;99.90
46676;DHT22;32412;51.478;5.694;2023-02-28T03:52:14;-0.70;99.90
46676;DHT22;32412;51.478;5.694;2023-02-28T03:54:45;-0.70;99.90
46676;DHT22;32412;51.478;5.694;2023-02-28T03:57:28;-0.70;99.90
46676;DHT22;32412;51.478;5.694;2023-02-28T04:00:12;-0.70;99.90
46676;DHT22;32412;51.478;5.694;2023-02-28T04:02:39;-0.70;99.90
46676;DHT22;32412;51.478;5.694;2023-02-28T04:05:06;-0.60;99.90
46676;DHT22;32412;51.478;5.694;2023-02-28T04:07:32;-0.60;99.90
46676;DHT22;32412;51.478;5.694;2023-02-28T04:09:58;-0.50;99.90
46676;DHT22;32412;51.478;5.694;2023-02-28T04:12:24;-0.40;99.90
46676;DHT22;32412;51.478;5.694;2023-02-28T04:14:50;-0.40;99.90
46676;DHT22;32412;51.478;5.694;2023-02-28T04:17:16;-0.40;99.90
46676;DHT22;32412;51.478;5.694;2023-02-28T04:19:43;-0.30;99.90
46676;DHT22;32412;51.478;5.694;2023-02-28T04:22:09;-0.20;99.90
46676;DHT22;32412;51.478;5.694;2023-02-28T04:24:35;-0.20;99.90
46676;DHT22;32412;51.478;5.694;2023-02-28T04:27:01;-0.10;99.90
46676;DHT22;32412;51.478;5.694;2023-02-28T04:29:29;-0.10;99.90
46676;DHT22;32412;51.478;5.694;2023-02-28T04:31:56;-0.10;99.90
46676;DHT22;32412;51.478;5.694;2023-02-28T04:34:23;0.00;99.90
46676;DHT22;32412;51.478;5.694;2023-02-28T04:36:49;0.00;99.90
46676;DHT22;32412;51.478;5.694;2023-02-28T04:39:19;0.10;99.90
46676;DHT22;32412;51.478;5.694;2023-02-28T04:41:45;0.10;99.90
46676;DHT22;32412;51.478;5.694;2023-02-28T04:44:11;0.00;99.90
46676;DHT22;32412;51.478;5.694;2023-02-28T04:46:37;0.10;99.90
46676;DHT22;32412;51.478;5.694;2023-02-28T04:49:03;0.10;99.90
46676;DHT22;32412;51.478;5.694;2023-02-28T04:51:29;0.10;99.90
46676;DHT22;32412;51.478;5.694;2023-02-28T04:53:55;0.10;99.90
46676;DHT22;32412;51.478;5.694;2023-02-28T04:56:21;0.10;99.90
46676;DHT22;32412;51.478;5.694;2023-02-28T04:58:47;0.10;99.90
46676;DHT22;32412;51.478;5.694;2023-02-28T05:01:19;0.00;99.90
46676;DHT22;32412;51.478;5.694;2023-02-28T05:03:45;0.00;99.90
46676;DHT22;32412;51.478;5.694;2023-02-28T05:06:12;0.00;99.90
46676;DHT22;32412;51.478;5.694;2023-02-28T05:08:38;0.00;99.90
46676;DHT22;32412;51.478;5.694;2023-02-28T05:11:05;0.00;99.90
46676;DHT22;32412;51.478;5.694;2023-02-28T05:13:31;0.00;99.90
46676;DHT22;32412;51.478;5.694;2023-02-28T05:16:04;0.00;99.90
46676;DHT22;32412;51.478;5.694;2023-02-28T05:18:30;0.00;99.90
46676;DHT22;32412;51.478;5.694;2023-02-28T05:20:56;0.00;99.90
46676;DHT22;32412;51.478;5.694;2023-02-28T05:23:23;0.00;99.90
46676;DHT22;32412;51.478;5.694;2023-02-28T05:25:49;0.10;99.90
46676;DHT22;32412;51.478;5.694;2023-02-28T05:28:14;0.10;99.90
46676;DHT22;32412;51.478;5.694;2023-02-28T05:30:40;0.10;99.90
46676;DHT22;32412;51.478;5.694;2023-02-28T05:33:06;0.10;99.90
46676;DHT22;32412;51.478;5.694;2023-02-28T05:35:32;0.10;99.90
46676;DHT22;32412;51.478;5.694;2023-02-28T05:37:57;0.10;99.90
46676;DHT22;32412;51.478;5.694;2023-02-28T05:40:23;0.00;99.90
46676;DHT22;32412;51.478;5.694;2023-02-28T05:42:50;0.00;99.90
46676;DHT22;32412;51.478;5.694;2023-02-28T05:45:16;0.00;99.90
46676;DHT22;32412;51.478;5.694;2023-02-28T05:47:43;0.00;99.90
46676;DHT22;32412;51.478;5.694;2023-02-28T05:50:11;0.00;99.90
46676;DHT22;32412;51.478;5.694;2023-02-28T05:52:37;0.00;99.90
46676;DHT22;32412;51.478;5.694;2023-02-28T05:55:04;0.00;99.90
46676;DHT22;32412;51.478;5.694;2023-02-28T05:57:29;-0.10;99.90
46676;DHT22;32412;51.478;5.694;2023-02-28T05:59:55;-0.10;99.90
46676;DHT22;32412;51.478;5.694;2023-02-28T06:02:21;-0.10;99.90
46676;DHT22;32412;51.478;5.694;2023-02-28T06:04:46;-0.20;99.90
46676;DHT22;32412;51.478;5.694;2023-02-28T06:07:12;-0.20;99.90
46676;DHT22;32412;51.478;5.694;2023-02-28T06:09:43;-0.20;99.90
46676;DHT22;32412;51.478;5.694;2023-02-28T06:12:10;-0.10;99.90
46676;DHT22;32412;51.478;5.694;2023-02-28T06:14:36;-0.10;99.90
46676;DHT22;32412;51.478;5.694;2023-02-28T06:17:03;-0.10;99.90
46676;DHT22;32412;51.478;5.694;2023-02-28T06:19:29;-0.20;99.90
46676;DHT22;32412;51.478;5.694;2023-02-28T06:21:56;-0.20;99.90
46676;DHT22;32412;51.478;5.694;2023-02-28T06:24:23;-0.20;99.90
46676;DHT22;32412;51.478;5.694;2023-02-28T06:26:50;-0.30;99.90
46676;DHT22;32412;51.478;5.694;2023-02-28T06:29:15;-0.20;99.90
46676;DHT22;32412;51.478;5.694;2023-02-28T06:31:45;-0.30;99.90
46676;DHT22;32412;51.478;5.694;2023-02-28T06:34:12;-0.20;99.90
46676;DHT22;32412;51.478;5.694;2023-02-28T06:36:39;-0.30;99.90
46676;DHT22;32412;51.478;5.694;2023-02-28T06:39:08;-0.30;99.90
46676;DHT22;32412;51.478;5.694;2023-02-28T06:41:34;-0.40;99.90
46676;DHT22;32412;51.478;5.694;2023-02-28T06:44:13;-0.40;99.90
46676;DHT22;32412;51.478;5.694;2023-02-28T06:46:41;-0.50;99.90
46676;DHT22;32412;51.478;5.694;2023-02-28T06:49:07;-0.50;99.90
46676;DHT22;32412;51.478;5.694;2023-02-28T06:51:38;-0.60;99.90
46676;DHT22;32412;51.478;5.694;2023-02-28T06:54:05;-0.50;99.90
46676;DHT22;32412;51.478;5.694;2023-02-28T06:56:35;-0.60;99.90
46676;DHT22;32412;51.478;5.694;2023-02-28T06:59:01;-0.60;99.90
46676;DHT22;32412;51.478;5.694;2023-02-28T07:01:26;-0.60;99.90
46676;DHT22;32412;51.478;5.694;2023-02-28T07:03:54;-0.50;99.90
46676;DHT22;32412;51.478;5.694;2023-02-28T07:06:23;-0.50;99.90
46676;DHT22;32412;51.478;5.694;2023-02-28T07:08:50;-0.40;99.90
46676;DHT22;32412;51.478;5.694;2023-02-28T07:11:16;-0.40;99.90
46676;DHT22;32412;51.478;5.694;2023-02-28T07:13:42;-0.40;99.90
46676;DHT22;32412;51.478;5.694;2023-02-28T07:16:10;-0.40;99.90
46676;DHT22;32412;51.478;5.694;2023-02-28T07:18:37;-0.30;99.90
46676;DHT22;32412;51.478;5.694;2023-02-28T07:21:08;-0.30;99.90
46676;DHT22;32412;51.478;5.694;2023-02-28T07:23:35;-0.20;99.90
46676;DHT22;32412;51.478;5.694;2023-02-28T07:26:01;-0.10;99.90
46676;DHT22;32412;51.478;5.694;2023-02-28T07:28:27;0.00;99.90
46676;DHT22;32412;51.478;5.694;2023-02-28T07:30:53;0.00;99.90
46676;DHT22;32412;51.478;5.694;2023-02-28T07:33:21;0.00;99.90
46676;DHT22;32412;51.478;5.694;2023-02-28T07:35:47;0.10;99.90
46676;DHT22;32412;51.478;5.694;2023-02-28T07:38:13;0.10;99.90
46676;DHT22;32412;51.478;5.694;2023-02-28T07:40:39;0.20;99.90
46676;DHT22;32412;51.478;5.694;2023-02-28T07:43:05;0.20;99.90
46676;DHT22;32412;51.478;5.694;2023-02-28T07:45:31;0.30;99.90
46676;DHT22;32412;51.478;5.694;2023-02-28T07:48:00;0.30;99.90
46676;DHT22;32412;51.478;5.694;2023-02-28T07:50:26;0.30;99.90
46676;DHT22;32412;51.478;5.694;2023-02-28T07:52:54;0.40;99.90
46676;DHT22;32412;51.478;5.694;2023-02-28T07:55:20;0.40;99.90
46676;DHT22;32412;51.478;5.694;2023-02-28T07:57:45;0.50;99.90
46676;DHT22;32412;51.478;5.694;2023-02-28T08:00:11;0.50;99.90
46676;DHT22;32412;51.478;5.694;2023-02-28T08:02:39;0.60;99.90
46676;DHT22;32412;51.478;5.694;2023-02-28T08:05:06;0.80;99.90
46676;DHT22;32412;51.478;5.694;2023-02-28T08:07:37;0.80;99.90
46676;DHT22;32412;51.478;5.694;2023-02-28T08:10:06;1.00;99.90
46676;DHT22;32412;51.478;5.694;2023-02-28T08:12:32;1.00;99.90
46676;DHT22;32412;51.478;5.694;2023-02-28T08:15:01;1.10;99.90
46676;DHT22;32412;51.478;5.694;2023-02-28T08:17:29;1.10;99.90
46676;DHT22;32412;51.478;5.694;2023-02-28T08:19:55;1.10;99.90
46676;DHT22;32412;51.478;5.694;2023-02-28T08:22:20;1.20;99.90
46676;DHT22;32412;51.478;5.694;2023-02-28T08:24:46;1.30;99.90
46676;DHT22;32412;51.478;5.694;2023-02-28T08:27:12;1.40;99.90
46676;DHT22;32412;51.478;5.694;2023-02-28T08:29:38;1.60;99.90
46676;DHT22;32412;51.478;5.694;2023-02-28T08:32:05;1.70;99.90
46676;DHT22;32412;51.478;5.694;2023-02-28T08:34:31;1.70;99.90
46676;DHT22;32412;51.478;5.694;2023-02-28T08:36:57;1.80;99.90
46676;DHT22;32412;51.478;5.694;2023-02-28T08:39:23;1.90;99.90
46676;DHT22;32412;51.478;5.694;2023-02-28T08:41:48;2.00;99.90
46676;DHT22;32412;51.478;5.694;2023-02-28T08:44:14;2.10;99.90
46676;DHT22;32412;51.478;5.694;2023-02-28T08:46:39;2.10;99.90
46676;DHT22;32412;51.478;5.694;2023-02-28T08:49:05;2.20;99.90
46676;DHT22;32412;51.478;5.694;2023-02-28T08:51:32;2.30;99.90
46676;DHT22;32412;51.478;5.694;2023-02-28T08:54:01;2.40;99.90
46676;DHT22;32412;51.478;5.694;2023-02-28T08:56:28;2.40;99.90
46676;DHT22;32412;51.478;5.694;2023-02-28T08:58:56;2.50;99.90
46676;DHT22;32412;51.478;5.694;2023-02-28T09:01:27;2.60;99.90
46676;DHT22;32412;51.478;5.694;2023-02-28T09:03:54;2.60;99.90
46676;DHT22;32412;51.478;5.694;2023-02-28T09:06:25;2.70;99.90
46676;DHT22;32412;51.478;5.694;2023-02-28T09:08:51;2.80;99.90
46676;DHT22;32412;51.478;5.694;2023-02-28T09:11:18;2.90;99.90
46676;DHT22;32412;51.478;5.694;2023-02-28T09:13:45;3.00;99.90
46676;DHT22;32412;51.478;5.694;2023-02-28T09:16:13;3.10;99.90
46676;DHT22;32412;51.478;5.694;2023-02-28T09:18:40;3.20;99.90
46676;DHT22;32412;51.478;5.694;2023-02-28T09:21:09;3.20;99.90
46676;DHT22;32412;51.478;5.694;2023-02-28T09:23:36;3.30;99.90
46676;DHT22;32412;51.478;5.694;2023-02-28T09:26:04;3.40;99.90
46676;DHT22;32412;51.478;5.694;2023-02-28T09:28:30;3.50;99.90
46676;DHT22;32412;51.478;5.694;2023-02-28T09:30:55;3.60;99.90
46676;DHT22;32412;51.478;5.694;2023-02-28T09:33:22;3.60;99.90
46676;DHT22;32412;51.478;5.694;2023-02-28T09:35:49;3.70;99.90
46676;DHT22;32412;51.478;5.694;2023-02-28T09:38:16;3.80;99.90
46676;DHT22;32412;51.478;5.694;2023-02-28T09:40:53;3.90;99.90
46676;DHT22;32412;51.478;5.694;2023-02-28T09:43:23;4.20;99.90
46676;DHT22;32412;51.478;5.694;2023-02-28T09:48:51;4.90;99.10
46676;DHT22;32412;51.478;5.694;2023-02-28T09:53:53;6.00;97.00
46676;DHT22;32412;51.478;5.694;2023-02-28T09:56:36;6.60;96.80
46676;DHT22;32412;51.478;5.694;2023-02-28T09:59:29;7.00;94.20
46676;DHT22;32412;51.478;5.694;2023-02-28T10:02:18;7.00;93.70
46676;DHT22;32412;51.478;5.694;2023-02-28T10:04:56;7.30;93.60
46676;DHT22;32412;51.478;5.694;2023-02-28T10:09:54;8.10;92.40
46676;DHT22;32412;51.478;5.694;2023-02-28T10:12:21;8.60;91.80
46676;DHT22;32412;51.478;5.694;2023-02-28T10:14:50;9.30;91.50
46676;DHT22;32412;51.478;5.694;2023-02-28T10:17:21;9.70;91.20
46676;DHT22;32412;51.478;5.694;2023-02-28T10:20:07;9.80;90.50
46676;DHT22;32412;51.478;5.694;2023-02-28T10:22:57;10.20;89.70
46676;DHT22;32412;51.478;5.694;2023-02-28T10:25:27;9.90;88.20
46676;DHT22;32412;51.478;5.694;2023-02-28T10:27:57;9.80;88.00
46676;DHT22;32412;51.478;5.694;2023-02-28T10:30:26;9.70;87.70
46676;DHT22;32412;51.478;5.694;2023-02-28T10:32:53;10.00;88.30
46676;DHT22;32412;51.478;5.694;2023-02-28T10:35:23;10.10;87.50
46676;DHT22;32412;51.478;5.694;2023-02-28T10:37:53;9.90;86.70
46676;DHT22;32412;51.478;5.694;2023-02-28T10:45:57;9.70;85.80
46676;DHT22;32412;51.478;5.694;2023-02-28T10:48:43;10.20;85.70
46676;DHT22;32412;51.478;5.694;2023-02-28T10:51:14;10.90;84.90
46676;DHT22;32412;51.478;5.694;2023-02-28T10:53:52;11.30;83.20
46676;DHT22;32412;51.478;5.694;2023-02-28T10:56:22;11.10;82.90
46676;DHT22;32412;51.478;5.694;2023-02-28T11:04:01;10.70;83.60
46676;DHT22;32412;51.478;5.694;2023-02-28T11:06:34;10.40;83.20
46676;DHT22;32412;51.478;5.694;2023-02-28T11:09:13;10.60;83.30
46676;DHT22;32412;51.478;5.694;2023-02-28T11:11:44;10.80;83.10
46676;DHT22;32412;51.478;5.694;2023-02-28T11:16:45;11.30;82.40
46676;DHT22;32412;51.478;5.694;2023-02-28T11:19:19;11.00;81.90
46676;DHT22;32412;51.478;5.694;2023-02-28T11:21:54;10.40;82.10
46676;DHT22;32412;51.478;5.694;2023-02-28T11:24:33;10.40;83.00
46676;DHT22;32412;51.478;5.694;2023-02-28T11:27:01;11.10;83.10
46676;DHT22;32412;51.478;5.694;2023-02-28T11:29:29;11.40;82.50
46676;DHT22;32412;51.478;5.694;2023-02-28T11:34:27;11.40;82.40
46676;DHT22;32412;51.478;5.694;2023-02-28T11:36:55;11.40;82.80
46676;DHT22;32412;51.478;5.694;2023-02-28T11:39:23;11.50;81.50
46676;DHT22;32412;51.478;5.694;2023-02-28T11:42:22;11.90;81.00
46676;DHT22;32412;51.478;5.694;2023-02-28T11:55:54;13.00;79.50
46676;DHT22;32412;51.478;5.694;2023-02-28T12:04:29;12.30;79.20
46676;DHT22;32412;51.478;5.694;2023-02-28T12:07:37;12.40;79.60
46676;DHT22;32412;51.478;5.694;2023-02-28T12:10:23;12.70;78.50
46676;DHT22;32412;51.478;5.694;2023-02-28T12:13:12;12.10;78.90
46676;DHT22;32412;51.478;5.694;2023-02-28T12:26:45;13.10;78.10
46676;DHT22;32412;51.478;5.694;2023-02-28T12:29:30;12.80;76.90
46676;DHT22;32412;51.478;5.694;2023-02-28T12:37:39;11.70;78.50
46676;DHT22;32412;51.478;5.694;2023-02-28T12:40:27;12.10;77.70
46676;DHT22;32412;51.478;5.694;2023-02-28T12:43:02;12.20;77.70
46676;DHT22;32412;51.478;5.694;2023-02-28T12:45:59;12.30;78.00
46676;DHT22;32412;51.478;5.694;2023-02-28T12:48:51;12.30;77.60
46676;DHT22;32412;51.478;5.694;2023-02-28T12:51:16;12.30;78.10
46676;DHT22;32412;51.478;5.694;2023-02-28T13:02:18;12.50;78.50
46676;DHT22;32412;51.478;5.694;2023-02-28T13:10:51;12.00;78.20
46676;DHT22;32412;51.478;5.694;2023-02-28T13:13:23;11.90;78.30
46676;DHT22;32412;51.478;5.694;2023-02-28T13:16:07;11.60;78.20
46676;DHT22;32412;51.478;5.694;2023-02-28T13:18:36;11.10;78.70
46676;DHT22;32412;51.478;5.694;2023-02-28T13:21:04;11.20;79.90
46676;DHT22;32412;51.478;5.694;2023-02-28T13:26:12;10.80;79.30
46676;DHT22;32412;51.478;5.694;2023-02-28T13:31:24;11.20;78.10
46676;DHT22;32412;51.478;5.694;2023-02-28T13:44:04;11.30;79.20
46676;DHT22;32412;51.478;5.694;2023-02-28T13:46:32;11.60;79.70
46676;DHT22;32412;51.478;5.694;2023-02-28T13:51:46;11.90;78.40
46676;DHT22;32412;51.478;5.694;2023-02-28T14:00:18;12.00;79.50
46676;DHT22;32412;51.478;5.694;2023-02-28T14:05:27;12.20;78.70
46676;DHT22;32412;51.478;5.694;2023-02-28T14:07:57;12.30;77.70
46676;DHT22;32412;51.478;5.694;2023-02-28T14:10:28;12.40;78.00
46676;DHT22;32412;51.478;5.694;2023-02-28T14:16:01;12.30;77.60
46676;DHT22;32412;51.478;5.694;2023-02-28T14:18:35;12.70;78.40
46676;DHT22;32412;51.478;5.694;2023-02-28T14:21:27;12.40;78.40
46676;DHT22;32412;51.478;5.694;2023-02-28T14:32:13;11.90;79.60
46676;DHT22;32412;51.478;5.694;2023-02-28T14:37:09;11.40;79.20
46676;DHT22;32412;51.478;5.694;2023-02-28T14:39:36;11.10;79.40
46676;DHT22;32412;51.478;5.694;2023-02-28T14:42:27;11.20;79.50
46676;DHT22;32412;51.478;5.694;2023-02-28T14:44:54;11.30;80.50
46676;DHT22;32412;51.478;5.694;2023-02-28T14:47:22;10.90;80.20
46676;DHT22;32412;51.478;5.694;2023-02-28T14:49:48;10.10;80.90
46676;DHT22;32412;51.478;5.694;2023-02-28T14:52:21;9.10;82.20
46676;DHT22;32412;51.478;5.694;2023-02-28T14:55:03;8.60;83.40
46676;DHT22;32412;51.478;5.694;2023-02-28T14:57:34;8.40;84.40
46676;DHT22;32412;51.478;5.694;2023-02-28T15:02:47;9.10;83.30
46676;DHT22;32412;51.478;5.694;2023-02-28T15:07:39;10.20;82.80
46676;DHT22;32412;51.478;5.694;2023-02-28T15:10:16;10.00;82.00
46676;DHT22;32412;51.478;5.694;2023-02-28T15:12:51;9.00;82.60
46676;DHT22;32412;51.478;5.694;2023-02-28T15:15:18;8.40;84.70
46676;DHT22;32412;51.478;5.694;2023-02-28T15:17:49;7.90;86.20
46676;DHT22;32412;51.478;5.694;2023-02-28T15:20:16;7.60;86.40
46676;DHT22;32412;51.478;5.694;2023-02-28T15:22:42;7.50;86.20
46676;DHT22;32412;51.478;5.694;2023-02-28T15:25:13;7.20;87.60
46676;DHT22;32412;51.478;5.694;2023-02-28T15:27:50;7.10;88.20
46676;DHT22;32412;51.478;5.694;2023-02-28T15:30:28;7.30;89.40
46676;DHT22;32412;51.478;5.694;2023-02-28T15:35:38;7.70;88.20
46676;DHT22;32412;51.478;5.694;2023-02-28T15:38:15;7.40;87.70
46676;DHT22;32412;51.478;5.694;2023-02-28T15:40:44;7.30;89.00
46676;DHT22;32412;51.478;5.694;2023-02-28T15:43:28;7.10;89.20
46676;DHT22;32412;51.478;5.694;2023-02-28T15:46:06;6.90;89.70
46676;DHT22;32412;51.478;5.694;2023-02-28T15:48:34;7.20;89.40
46676;DHT22;32412;51.478;5.694;2023-02-28T15:51:06;7.60;90.00
46676;DHT22;32412;51.478;5.694;2023-02-28T15:53:39;8.10;89.10
46676;DHT22;32412;51.478;5.694;2023-02-28T15:56:27;8.60;87.60
46676;DHT22;32412;51.478;5.694;2023-02-28T15:58:55;8.90;86.90
46676;DHT22;32412;51.478;5.694;2023-02-28T16:01:27;8.70;87.10
46676;DHT22;32412;51.478;5.694;2023-02-28T16:04:06;8.70;87.60
46676;DHT22;32412;51.478;5.694;2023-02-28T16:08:59;8.80;87.80
46676;DHT22;32412;51.478;5.694;2023-02-28T16:11:25;9.30;88.40
46676;DHT22;32412;51.478;5.694;2023-02-28T16:13:52;9.70;85.80
46676;DHT22;32412;51.478;5.694;2023-02-28T16:16:19;10.20;85.50
46676;DHT22;32412;51.478;5.694;2023-02-28T16:18:45;10.00;84.80
46676;DHT22;32412;51.478;5.694;2023-02-28T16:21:11;10.30;85.60
46676;DHT22;32412;51.478;5.694;2023-02-28T16:23:36;10.50;84.90
46676;DHT22;32412;51.478;5.694;2023-02-28T16:26:04;10.50;85.10
46676;DHT22;32412;51.478;5.694;2023-02-28T16:28:35;10.30;84.40
46676;DHT22;32412;51.478;5.694;2023-02-28T16:31:03;9.60;85.50
46676;DHT22;32412;51.478;5.694;2023-02-28T16:33:33;9.40;85.20
46676;DHT22;32412;51.478;5.694;2023-02-28T16:35:59;9.00;86.00
46676;DHT22;32412;51.478;5.694;2023-02-28T16:38:25;8.40;87.50
46676;DHT22;32412;51.478;5.694;2023-02-28T16:40:51;7.80;88.10
46676;DHT22;32412;51.478;5.694;2023-02-28T16:43:22;7.90;90.00
46676;DHT22;32412;51.478;5.694;2023-02-28T16:45:48;7.90;89.80
46676;DHT22;32412;51.478;5.694;2023-02-28T16:48:15;7.80;90.30
46676;DHT22;32412;51.478;5.694;2023-02-28T16:50:42;8.10;90.20
46676;DHT22;32412;51.478;5.694;2023-02-28T16:53:10;7.90;90.00
46676;DHT22;32412;51.478;5.694;2023-02-28T16:55:35;7.40;90.10
46676;DHT22;32412;51.478;5.694;2023-02-28T16:58:02;6.90;91.00
46676;DHT22;32412;51.478;5.694;2023-02-28T17:00:30;6.60;91.80
46676;DHT22;32412;51.478;5.694;2023-02-28T17:02:57;6.20;92.10
46676;DHT22;32412;51.478;5.694;2023-02-28T17:05:25;5.90;92.80
46676;DHT22;32412;51.478;5.694;2023-02-28T17:07:50;5.70;93.50
46676;DHT22;32412;51.478;5.694;2023-02-28T17:10:19;5.40;93.80
46676;DHT22;32412;51.478;5.694;2023-02-28T17:12:45;5.30;94.30
46676;DHT22;32412;51.478;5.694;2023-02-28T17:15:12;5.20;94.60
46676;DHT22;32412;51.478;5.694;2023-02-28T17:17:38;5.10;95.00
46676;DHT22;32412;51.478;5.694;2023-02-28T17:20:05;4.90;95.30
46676;DHT22;32412;51.478;5.694;2023-02-28T17:22:31;4.80;96.00
46676;DHT22;32412;51.478;5.694;2023-02-28T17:24:57;4.70;96.30
46676;DHT22;32412;51.478;5.694;2023-02-28T17:27:24;4.60;96.80
46676;DHT22;32412;51.478;5.694;2023-02-28T17:29:50;4.60;97.30
46676;DHT22;32412;51.478;5.694;2023-02-28T17:32:16;4.50;97.60
46676;DHT22;32412;51.478;5.694;2023-02-28T17:34:42;4.40;97.40
46676;DHT22;32412;51.478;5.694;2023-02-28T17:37:09;4.40;97.70
46676;DHT22;32412;51.478;5.694;2023-02-28T17:39:35;4.30;98.10
46676;DHT22;32412;51.478;5.694;2023-02-28T17:42:01;4.20;98.80
46676;DHT22;32412;51.478;5.694;2023-02-28T17:44:26;4.10;99.20
46676;DHT22;32412;51.478;5.694;2023-02-28T17:46:54;4.10;99.90
46676;DHT22;32412;51.478;5.694;2023-02-28T17:49:25;4.00;99.90
46676;DHT22;32412;51.478;5.694;2023-02-28T17:51:51;4.00;99.90
46676;DHT22;32412;51.478;5.694;2023-02-28T17:54:17;3.90;99.90
46676;DHT22;32412;51.478;5.694;2023-02-28T17:56:42;3.80;99.90
46676;DHT22;32412;51.478;5.694;2023-02-28T17:59:09;3.80;99.90
46676;DHT22;32412;51.478;5.694;2023-02-28T18:01:35;3.70;99.90
46676;DHT22;32412;51.478;5.694;2023-02-28T18:04:00;3.60;99.90
46676;DHT22;32412;51.478;5.694;2023-02-28T18:06:38;3.50;99.90
46676;DHT22;32412;51.478;5.694;2023-02-28T18:09:17;3.50;99.90
46676;DHT22;32412;51.478;5.694;2023-02-28T18:11:43;3.40;99.90
46676;DHT22;32412;51.478;5.694;2023-02-28T18:14:14;3.30;99.90
46676;DHT22;32412;51.478;5.694;2023-02-28T18:20:01;3.00;99.90
46676;DHT22;32412;51.478;5.694;2023-02-28T18:22:30;2.90;99.90
46676;DHT22;32412;51.478;5.694;2023-02-28T18:24:55;2.80;99.90
46676;DHT22;32412;51.478;5.694;2023-02-28T18:27:21;2.60;99.90
46676;DHT22;32412;51.478;5.694;2023-02-28T18:29:47;2.60;99.90
46676;DHT22;32412;51.478;5.694;2023-02-28T18:32:14;2.50;99.90
46676;DHT22;32412;51.478;5.694;2023-02-28T18:34:39;2.40;99.90
46676;DHT22;32412;51.478;5.694;2023-02-28T18:37:05;2.30;99.90
46676;DHT22;32412;51.478;5.694;2023-02-28T18:39:31;2.20;99.90
46676;DHT22;32412;51.478;5.694;2023-02-28T18:41:57;2.20;99.90